createdAt,value
2019-03-29T00:04:58.585Z,100.00
2019-03-29T00:10:03.428Z,100.00
2019-03-29T00:15:08.343Z,100.00
2019-03-29T00:20:12.994Z,100.00
2019-03-29T00:25:17.651Z,100.00
2019-03-29T00:30:22.343Z,100.00
2019-03-29T00:35:26.895Z,100.00
2019-03-29T00:40:31.570Z,100.00
2019-03-29T00:45:36.231Z,100.00
2019-03-29T00:50:40.835Z,100.00
2019-03-29T00:55:46.898Z,100.00
2019-03-29T01:00:52.426Z,100.00
2019-03-29T01:05:57.050Z,100.00
2019-03-29T01:11:01.714Z,100.00
2019-03-29T01:16:06.259Z,100.00
2019-03-29T01:21:10.852Z,100.00
2019-03-29T01:26:15.494Z,100.00
2019-03-29T01:31:20.092Z,100.00
2019-03-29T01:36:24.667Z,100.00
2019-03-29T01:41:29.236Z,100.00
2019-03-29T01:46:33.826Z,100.00
2019-03-29T01:51:38.408Z,100.00
2019-03-29T01:56:43.010Z,100.00
2019-03-29T02:01:47.651Z,100.00
2019-03-29T02:06:52.263Z,100.00
2019-03-29T02:11:57.192Z,100.00
2019-03-29T02:17:01.763Z,100.00
2019-03-29T02:22:06.641Z,100.00
2019-03-29T02:27:11.307Z,100.00
2019-03-29T02:32:15.936Z,100.00
2019-03-29T02:37:20.533Z,100.00
2019-03-29T02:42:25.122Z,100.00
2019-03-29T02:47:29.699Z,100.00
2019-03-29T02:52:34.678Z,100.00
2019-03-29T02:57:39.341Z,100.00
2019-03-29T03:02:43.995Z,100.00
2019-03-29T03:07:48.654Z,100.00
2019-03-29T03:12:53.274Z,100.00
2019-03-29T03:17:57.941Z,100.00
2019-03-29T03:23:02.533Z,100.00
2019-03-29T03:28:07.136Z,100.00
2019-03-29T03:33:11.760Z,100.00
2019-03-29T03:38:16.341Z,100.00
2019-03-29T03:43:21.218Z,100.00
2019-03-29T03:48:25.794Z,100.00
2019-03-29T03:53:31.075Z,100.00
2019-03-29T03:58:35.756Z,100.00
2019-03-29T04:03:40.330Z,100.00
2019-03-29T04:08:44.960Z,100.00
2019-03-29T04:13:49.655Z,100.00
2019-03-29T04:18:54.543Z,100.00
2019-03-29T04:23:59.256Z,100.00
2019-03-29T04:29:05.264Z,100.00
2019-03-29T04:34:10.031Z,100.00
2019-03-29T04:39:14.820Z,100.00
2019-03-29T04:44:19.696Z,100.00
2019-03-29T04:49:24.685Z,100.00
2019-03-29T04:54:29.379Z,100.00
2019-03-29T04:59:34.017Z,100.00
2019-03-29T05:04:38.711Z,100.00
2019-03-29T05:09:43.300Z,100.00
2019-03-29T05:14:47.965Z,100.00
2019-03-29T05:19:52.569Z,100.00
2019-03-29T05:24:57.445Z,100.00
2019-03-29T05:30:02.103Z,100.00
2019-03-29T05:35:07.155Z,100.00
2019-03-29T05:40:12.047Z,100.00
2019-03-29T05:45:16.985Z,100.00
2019-03-29T05:50:22.053Z,100.00
2019-03-29T05:55:32.534Z,100.00
2019-03-29T06:00:33.059Z,100.00
2019-03-29T06:05:37.710Z,100.00
2019-03-29T06:10:49.078Z,100.00
2019-03-29T06:15:48.963Z,100.00
2019-03-29T06:20:53.660Z,100.00
2019-03-29T06:25:58.577Z,100.00
2019-03-29T06:31:03.270Z,100.00
2019-03-29T06:36:09.325Z,100.00
2019-03-29T06:41:13.909Z,100.00
2019-03-29T06:46:18.537Z,100.00
2019-03-29T06:51:23.396Z,100.00
2019-03-29T06:56:27.988Z,100.00
2019-03-29T07:01:32.601Z,100.00
2019-03-29T07:06:37.316Z,100.00
2019-03-29T07:11:42.113Z,100.00
2019-03-29T07:16:46.734Z,100.00
2019-03-29T07:21:51.554Z,100.00
2019-03-29T07:26:56.388Z,100.00
2019-03-29T07:32:02.013Z,100.00
2019-03-29T07:37:06.581Z,100.00
2019-03-29T07:42:11.164Z,100.00
2019-03-29T07:47:15.774Z,100.00
2019-03-29T07:52:20.604Z,100.00
2019-03-29T07:57:25.214Z,100.00
2019-03-29T08:02:29.817Z,100.00
2019-03-29T08:07:34.454Z,100.00
2019-03-29T08:12:40.711Z,100.00
2019-03-29T08:17:47.553Z,100.00
2019-03-29T08:22:52.535Z,99.49
2019-03-29T08:27:57.344Z,99.27
2019-03-29T08:33:02.100Z,97.07
2019-03-29T08:38:06.671Z,97.65
2019-03-29T08:43:11.263Z,95.49
2019-03-29T08:48:15.868Z,96.51
2019-03-29T08:53:20.501Z,94.41
2019-03-29T08:58:25.078Z,94.07
2019-03-29T09:03:29.658Z,94.08
2019-03-29T09:08:34.303Z,94.55
2019-03-29T09:13:38.857Z,92.91
2019-03-29T09:18:43.457Z,91.88
2019-03-29T09:23:48.241Z,91.48
2019-03-29T09:28:52.841Z,91.49
2019-03-29T09:33:58.694Z,87.27
2019-03-29T09:39:04.906Z,84.31
2019-03-29T09:44:09.633Z,84.32
2019-03-29T09:49:14.229Z,81.96
2019-03-29T09:54:20.593Z,80.91
2019-03-29T09:59:25.266Z,77.96
2019-03-29T10:04:29.888Z,74.20
2019-03-29T10:09:34.460Z,72.53
2019-03-29T10:14:39.019Z,68.74
2019-03-29T10:19:43.582Z,69.26
2019-03-29T10:24:48.531Z,65.74
2019-03-29T10:29:53.091Z,62.74
2019-03-29T10:34:58.098Z,62.90
2019-03-29T10:40:02.676Z,64.53
2019-03-29T10:45:07.216Z,61.14
2019-03-29T10:50:11.784Z,66.01
2019-03-29T10:55:16.693Z,65.93
2019-03-29T11:00:34.396Z,66.12
2019-03-29T11:05:39.058Z,62.85
2019-03-29T11:10:43.659Z,63.87
2019-03-29T11:15:48.538Z,65.64
2019-03-29T11:20:53.280Z,65.59
2019-03-29T11:25:57.991Z,62.87
2019-03-29T11:31:02.657Z,63.46
2019-03-29T11:36:07.251Z,63.94
2019-03-29T11:41:12.279Z,63.82
2019-03-29T11:46:16.846Z,61.33
2019-03-29T11:51:21.940Z,63.04
2019-03-29T11:56:26.525Z,64.32
2019-03-29T12:01:31.258Z,64.88
2019-03-29T12:06:35.858Z,68.45
2019-03-29T12:11:40.749Z,71.67
2019-03-29T12:16:45.619Z,69.43
2019-03-29T12:21:50.305Z,69.99
2019-03-29T12:27:06.915Z,65.92
2019-03-29T12:32:11.509Z,65.81
2019-03-29T12:37:33.754Z,67.39
2019-03-29T12:42:38.319Z,67.53
2019-03-29T12:47:43.218Z,66.38
2019-03-29T12:52:47.856Z,66.95
2019-03-29T12:58:10.384Z,66.48
2019-03-29T13:03:32.595Z,65.44
2019-03-29T13:08:37.170Z,65.57
2019-03-29T13:13:41.735Z,65.73
2019-03-29T13:18:46.323Z,67.54
2019-03-29T13:23:50.878Z,67.19
2019-03-29T13:28:55.444Z,65.49
2019-03-29T13:34:00.060Z,66.18
2019-03-29T13:39:06.778Z,65.76
2019-03-29T13:44:23.215Z,64.89
2019-03-29T13:49:17.720Z,64.26
2019-03-29T13:54:22.322Z,65.00
2019-03-29T13:59:26.959Z,62.95
2019-03-29T14:04:31.516Z,62.78
2019-03-29T14:09:36.096Z,64.17
2019-03-29T14:14:49.511Z,63.74
2019-03-29T14:19:54.140Z,65.74
2019-03-29T14:25:16.611Z,64.44
2019-03-29T14:30:21.187Z,65.34
2019-03-29T14:35:25.763Z,64.17
2019-03-29T14:40:30.351Z,61.33
2019-03-29T14:45:34.997Z,63.60
2019-03-29T14:50:39.693Z,60.53
2019-03-29T14:55:44.294Z,60.66
2019-03-29T15:00:49.229Z,61.98
2019-03-29T15:05:53.917Z,62.03
2019-03-29T15:10:58.516Z,60.41
2019-03-29T15:16:18.221Z,60.65
2019-03-29T15:21:22.855Z,63.84
2019-03-29T15:26:27.428Z,62.99
2019-03-29T15:31:49.694Z,64.61
2019-03-29T15:36:54.307Z,63.35
2019-03-29T15:41:58.895Z,63.04
2019-03-29T15:47:03.603Z,66.49
2019-03-29T15:52:08.168Z,65.40
2019-03-29T15:57:12.730Z,65.83
2019-03-29T16:02:17.385Z,65.33
2019-03-29T16:07:22.005Z,68.01
2019-03-29T16:12:26.562Z,66.15
2019-03-29T16:17:31.186Z,68.04
2019-03-29T16:22:35.784Z,68.86
2019-03-29T16:27:40.398Z,69.31
2019-03-29T16:32:44.989Z,70.09
2019-03-29T16:37:56.926Z,70.66
2019-03-29T16:42:56.097Z,70.45
2019-03-29T16:48:00.670Z,69.99
2019-03-29T16:53:05.253Z,71.20
2019-03-29T16:58:09.851Z,72.11
2019-03-29T17:03:14.459Z,74.24
2019-03-29T17:08:19.091Z,71.84
2019-03-29T17:13:23.641Z,72.17
2019-03-29T17:18:29.401Z,72.54
2019-03-29T17:23:34.357Z,73.75
2019-03-29T17:28:39.146Z,75.06
2019-03-29T17:33:43.737Z,77.62
2019-03-29T17:38:48.294Z,80.08
2019-03-29T17:43:52.849Z,81.51
2019-03-29T17:48:57.438Z,83.32
2019-03-29T17:54:02.005Z,86.53
2019-03-29T17:59:06.576Z,87.54
2019-03-29T18:04:11.233Z,88.43
2019-03-29T18:09:15.863Z,91.02
2019-03-29T18:14:20.430Z,94.60
2019-03-29T18:19:25.027Z,94.60
2019-03-29T18:24:29.654Z,97.89
2019-03-29T18:29:34.367Z,97.89
2019-03-29T18:34:41.632Z,100.00
2019-03-29T18:39:45.488Z,100.00
2019-03-29T18:44:50.088Z,100.00
2019-03-29T18:49:54.741Z,100.00
2019-03-29T18:54:59.433Z,100.00
2019-03-29T19:00:05.446Z,100.00
2019-03-29T19:05:15.066Z,100.00
2019-03-29T19:10:19.809Z,100.00
2019-03-29T19:15:24.537Z,100.00
2019-03-29T19:20:29.272Z,100.00
2019-03-29T19:25:34.067Z,100.00
2019-03-29T19:30:38.779Z,100.00
2019-03-29T19:35:43.520Z,100.00
2019-03-29T19:40:48.272Z,100.00
2019-03-29T19:45:53.132Z,100.00
2019-03-29T19:50:57.991Z,100.00
2019-03-29T19:56:03.140Z,100.00
2019-03-29T20:01:08.003Z,100.00
2019-03-29T20:06:12.780Z,100.00
2019-03-29T20:11:17.609Z,100.00
2019-03-29T20:16:22.381Z,100.00
2019-03-29T20:21:27.238Z,100.00
2019-03-29T20:26:32.068Z,100.00
2019-03-29T20:31:36.929Z,100.00
2019-03-29T20:36:41.729Z,100.00
2019-03-29T20:41:46.516Z,100.00
2019-03-29T20:46:51.301Z,100.00
2019-03-29T20:51:56.040Z,100.00
2019-03-29T20:57:00.853Z,100.00
2019-03-29T21:02:05.561Z,100.00
2019-03-29T21:07:10.258Z,100.00
2019-03-29T21:12:14.951Z,100.00
2019-03-29T21:17:19.589Z,100.00
2019-03-29T21:22:24.280Z,100.00
2019-03-29T21:27:28.903Z,100.00
2019-03-29T21:32:33.486Z,100.00
2019-03-29T21:37:38.053Z,100.00
2019-03-29T21:42:42.703Z,100.00
2019-03-29T21:48:01.474Z,100.00
2019-03-29T21:52:53.593Z,100.00
2019-03-29T21:57:58.191Z,100.00
2019-03-29T22:03:03.759Z,100.00
2019-03-29T22:08:08.680Z,100.00
2019-03-29T22:13:13.726Z,100.00
2019-03-29T22:18:18.349Z,100.00
2019-03-29T22:23:22.982Z,100.00
2019-03-29T22:28:27.569Z,100.00
2019-03-29T22:33:32.443Z,100.00
2019-03-29T22:38:37.042Z,100.00
2019-03-29T22:43:41.866Z,100.00
2019-03-29T22:48:52.409Z,100.00
2019-03-29T22:53:52.814Z,100.00
2019-03-29T22:58:57.401Z,100.00
2019-03-29T23:04:03.636Z,100.00
2019-03-29T23:09:11.594Z,100.00
2019-03-29T23:14:14.873Z,100.00
2019-03-29T23:19:19.461Z,100.00
2019-03-29T23:24:24.081Z,100.00
2019-03-29T23:29:29.060Z,100.00
2019-03-29T23:34:33.610Z,100.00
2019-03-29T23:39:38.547Z,100.00
2019-03-29T23:44:43.127Z,100.00
2019-03-29T23:49:47.697Z,100.00
2019-03-29T23:54:52.291Z,100.00
2019-03-29T23:59:57.079Z,100.00
